createdAt,value
2023-05-25T00:06:55.591Z,32.07
2023-05-25T00:42:12.938Z,36.27
2023-05-25T01:07:32.710Z,42.07
2023-05-25T01:38:35.992Z,43.63
2023-05-25T02:04:00.316Z,49.73
2023-05-25T02:29:11.779Z,42.80
2023-05-25T02:54:26.992Z,41.77
2023-05-25T03:19:50.967Z,43.97
2023-05-25T03:50:14.384Z,41.63
2023-05-25T04:51:07.289Z,41.43
2023-05-25T05:21:25.130Z,44.00
2023-05-25T05:46:29.371Z,40.40
2023-05-25T06:52:38.694Z,31.50
2023-05-25T07:17:34.056Z,32.57
2023-05-25T07:43:24.901Z,30.13
2023-05-25T10:30:17.774Z,29.33
2023-05-25T10:51:11.847Z,25.63
2023-05-25T11:16:40.379Z,21.73
2023-05-25T11:20:59.549Z,24.75
2023-05-25T12:11:45.695Z,17.95
2023-05-25T12:32:28.844Z,17.30
2023-05-25T12:52:49.780Z,15.70
2023-05-25T13:18:12.534Z,15.25
2023-05-25T14:13:28.156Z,11.50
2023-05-25T14:29:23.853Z,11.15
2023-05-25T15:14:59.887Z,12.57
2023-05-25T15:44:49.088Z,12.25
2023-05-25T16:10:22.125Z,13.05
2023-05-25T16:35:53.862Z,13.20
2023-05-25T17:11:00.897Z,14.18
2023-05-25T17:36:50.296Z,14.80
2023-05-25T18:12:26.037Z,12.85
2023-05-25T18:52:22.545Z,14.97
2023-05-25T19:12:57.589Z,14.87
2023-05-25T19:28:29.728Z,14.37
2023-05-25T19:53:50.201Z,14.53
2023-05-25T20:24:01.395Z,17.73
2023-05-25T20:44:28.730Z,16.73
2023-05-25T21:14:47.777Z,17.63
2023-05-25T21:40:17.625Z,18.67
2023-05-25T22:00:33.935Z,17.40
2023-05-25T22:35:28.473Z,13.47
2023-05-25T22:55:49.546Z,13.03
2023-05-25T23:21:45.536Z,14.23
